Time;durP1;ratioP1;P1;durP2;ratioP2;P2;SDS_P1;SDS_P2;PMS_P1;PMS_P2;Temp;Humidity;BMP_temperature;BMP_pressure;BME280_temperature;BME280_humidity;BME280_pressure;Samples;Min_cycle;Max_cycle;Signal;HPM_P1;HPM_P2
2022/04/18 00:00:47;;;;;;;22.03;11.57;;;;;;;;;;4906717;29;20450;-69
2022/04/18 00:03:14;;;;;;;21.43;11.97;;;;;;;;;;4901413;29;20473;-69
2022/04/18 00:05:40;;;;;;;23.07;10.80;;;;;;;;;;4904693;29;20856;-69
2022/04/18 00:08:08;;;;;;;23.13;11.60;;;;;;;;;;4896008;29;20448;-69
2022/04/18 00:10:35;;;;;;;20.77;10.63;;;;;;;;;;4895857;29;20482;-69
2022/04/18 00:13:02;;;;;;;19.97;10.70;;;;;;;;;;4895699;29;20452;-69
2022/04/18 00:15:29;;;;;;;19.17;10.00;;;;;;;;;;4908372;29;20444;-69
2022/04/18 00:17:56;;;;;;;20.30;10.03;;;;;;;;;;4913750;29;20451;-70
2022/04/18 00:20:23;;;;;;;17.63;9.17;;;;;;;;;;4914568;29;20959;-69
2022/04/18 00:22:50;;;;;;;16.30;8.07;;;;;;;;;;4900629;29;20561;-70
2022/04/18 00:25:17;;;;;;;15.63;7.93;;;;;;;;;;4896531;29;20449;-69
2022/04/18 00:27:44;;;;;;;13.30;7.80;;;;;;;;;;4911342;29;20546;-69
2022/04/18 00:30:12;;;;;;;13.20;7.33;;;;;;;;;;4913481;29;20456;-69
2022/04/18 00:32:39;;;;;;;14.87;7.93;;;;;;;;;;4896321;29;20457;-69
2022/04/18 00:35:06;;;;;;;13.47;7.40;;;;;;;;;;4900427;29;20512;-69
2022/04/18 00:37:33;;;;;;;14.47;7.20;;;;;;;;;;4910580;29;20538;-69
2022/04/18 00:40:00;;;;;;;11.97;6.60;;;;;;;;;;4882307;29;20453;-69
2022/04/18 00:42:44;;;;;;;11.80;7.03;;;;;;;;;;4895035;29;20999;-70
2022/04/18 00:45:14;;;;;;;14.00;7.03;;;;;;;;;;4903785;29;20442;-70
2022/04/18 00:47:40;;;;;;;14.43;7.80;;;;;;;;;;4913697;29;21133;-69
2022/04/18 00:50:08;;;;;;;13.37;7.63;;;;;;;;;;4913664;29;20958;-69
2022/04/18 00:52:35;;;;;;;15.93;8.63;;;;;;;;;;4896685;29;20451;-69
2022/04/18 00:55:02;;;;;;;16.13;8.50;;;;;;;;;;4911725;29;20444;-70
2022/04/18 00:57:29;;;;;;;16.83;8.17;;;;;;;;;;4903778;29;20506;-69
2022/04/18 00:59:57;;;;;;;13.47;8.00;;;;;;;;;;4886565;29;20469;-69
2022/04/18 01:02:23;;;;;;;15.20;7.80;;;;;;;;;;4887052;29;20483;-68
2022/04/18 01:04:51;;;;;;;14.87;7.97;;;;;;;;;;4896736;29;20450;-68
2022/04/18 01:07:18;;;;;;;16.27;8.47;;;;;;;;;;4913718;29;20518;-68
2022/04/18 01:09:45;;;;;;;13.63;8.20;;;;;;;;;;4903124;29;20451;-68
2022/04/18 01:12:11;;;;;;;13.10;8.03;;;;;;;;;;4905976;29;20461;-69
2022/04/18 01:14:56;;;;;;;12.53;7.30;;;;;;;;;;4897118;29;20900;-68
2022/04/18 01:17:41;;;;;;;15.00;8.47;;;;;;;;;;4896503;29;20451;-69
2022/04/18 01:20:30;;;;;;;12.60;7.50;;;;;;;;;;4899091;29;20990;-69
2022/04/18 01:23:11;;;;;;;13.40;7.70;;;;;;;;;;4884591;29;20483;-69
2022/04/18 01:28:58;;;;;;;11.70;6.90;;;;;;;;;;4894211;29;20436;-70
2022/04/18 01:31:27;;;;;;;12.80;7.00;;;;;;;;;;4893229;29;20531;-70
2022/04/18 01:33:53;;;;;;;11.27;6.90;;;;;;;;;;4884400;29;20459;-68
2022/04/18 01:36:21;;;;;;;8.77;5.73;;;;;;;;;;4909262;29;20455;-69
2022/04/18 01:38:49;;;;;;;12.00;6.40;;;;;;;;;;4911373;29;20482;-69
2022/04/18 01:41:16;;;;;;;8.93;5.70;;;;;;;;;;4897383;29;20539;-69
2022/04/18 01:44:01;;;;;;;10.27;5.97;;;;;;;;;;4884959;29;20429;-68
2022/04/18 01:46:28;;;;;;;12.07;6.00;;;;;;;;;;4877305;29;21023;-68
2022/04/18 01:48:55;;;;;;;11.50;6.30;;;;;;;;;;4876673;29;20551;-68
2022/04/18 01:51:22;;;;;;;10.23;6.07;;;;;;;;;;4894768;29;20475;-69
2022/04/18 01:53:56;;;;;;;10.13;6.07;;;;;;;;;;4880244;29;20556;-68
2022/04/18 01:56:23;;;;;;;10.33;6.40;;;;;;;;;;4877129;29;20444;-70
2022/04/18 01:58:49;;;;;;;11.33;5.47;;;;;;;;;;4889602;29;20570;-67
2022/04/18 02:01:17;;;;;;;10.90;6.00;;;;;;;;;;4878692;29;20447;-69
2022/04/18 02:03:45;;;;;;;9.67;5.63;;;;;;;;;;4895221;29;20866;-69
2022/04/18 02:06:14;;;;;;;10.47;6.03;;;;;;;;;;4891306;29;20488;-67
2022/04/18 02:08:40;;;;;;;8.33;5.57;;;;;;;;;;4895145;29;20444;-68
2022/04/18 02:11:07;;;;;;;8.60;5.50;;;;;;;;;;4895426;29;20545;-68
2022/04/18 02:13:37;;;;;;;8.70;5.30;;;;;;;;;;4895112;29;20440;-68
2022/04/18 02:16:06;;;;;;;8.77;5.50;;;;;;;;;;4887290;29;20460;-69
2022/04/18 02:18:37;;;;;;;11.13;5.33;;;;;;;;;;4899386;29;20959;-70
2022/04/18 02:21:04;;;;;;;8.97;5.37;;;;;;;;;;4896402;29;20851;-69
2022/04/18 02:23:30;;;;;;;9.93;5.87;;;;;;;;;;4906281;29;20476;-69
2022/04/18 02:25:57;;;;;;;10.07;5.67;;;;;;;;;;4893389;29;20460;-70
2022/04/18 02:28:24;;;;;;;11.90;5.83;;;;;;;;;;4876534;29;20531;-68
2022/04/18 02:30:56;;;;;;;9.97;5.33;;;;;;;;;;4876363;29;20447;-69
2022/04/18 02:33:23;;;;;;;10.67;6.00;;;;;;;;;;4888116;29;21362;-69
2022/04/18 02:35:51;;;;;;;9.60;5.53;;;;;;;;;;4879314;29;20441;-67
2022/04/18 02:38:20;;;;;;;8.13;5.37;;;;;;;;;;4887997;29;20546;-69
2022/04/18 02:40:47;;;;;;;9.67;5.00;;;;;;;;;;4898303;29;20448;-69
2022/04/18 02:43:14;;;;;;;11.40;5.60;;;;;;;;;;4903255;29;20483;-69
2022/04/18 02:45:46;;;;;;;11.03;5.33;;;;;;;;;;4876318;29;20439;-69
2022/04/18 02:48:35;;;;;;;10.20;4.87;;;;;;;;;;4876327;29;20805;-69
2022/04/18 02:51:07;;;;;;;7.70;4.70;;;;;;;;;;4876354;29;20449;-69
2022/04/18 02:53:53;;;;;;;7.77;4.80;;;;;;;;;;4903391;29;20626;-69
2022/04/18 02:56:20;;;;;;;8.17;5.30;;;;;;;;;;4893689;29;21149;-69
2022/04/18 02:59:04;;;;;;;8.97;4.90;;;;;;;;;;4877974;29;20432;-69
2022/04/18 03:01:31;;;;;;;9.03;5.10;;;;;;;;;;4895500;29;20482;-69
2022/04/18 03:04:16;;;;;;;8.50;4.87;;;;;;;;;;4893139;29;20432;-69
2022/04/18 03:06:42;;;;;;;8.17;4.77;;;;;;;;;;4889302;29;20959;-69
2022/04/18 03:09:27;;;;;;;7.30;4.63;;;;;;;;;;4899783;29;20432;-69
2022/04/18 03:11:54;;;;;;;8.50;4.47;;;;;;;;;;4888518;29;20531;-67
2022/04/18 03:14:38;;;;;;;10.43;5.70;;;;;;;;;;4895303;29;20443;-69
2022/04/18 03:17:05;;;;;;;8.13;5.00;;;;;;;;;;4911722;29;20446;-67
2022/04/18 03:19:49;;;;;;;8.03;4.70;;;;;;;;;;4911302;29;20427;-70
2022/04/18 03:22:16;;;;;;;10.20;5.07;;;;;;;;;;4894752;29;20475;-67
2022/04/18 03:24:49;;;;;;;8.50;5.00;;;;;;;;;;4894653;29;20452;-67
2022/04/18 03:27:20;;;;;;;8.20;4.90;;;;;;;;;;4894474;29;20502;-67
2022/04/18 03:30:05;;;;;;;10.00;5.00;;;;;;;;;;4894085;29;20432;-68
2022/04/18 03:32:41;;;;;;;9.03;5.60;;;;;;;;;;4894448;29;20803;-68
2022/04/18 03:35:09;;;;;;;8.47;5.27;;;;;;;;;;4893234;29;20471;-69
2022/04/18 03:40:23;;;;;;;6.27;4.53;;;;;;;;;;4885520;29;20455;-68
2022/04/18 03:42:50;;;;;;;8.87;5.50;;;;;;;;;;4891330;29;20864;-68
2022/04/18 03:45:18;;;;;;;7.87;5.20;;;;;;;;;;4899356;29;20458;-68
2022/04/18 03:47:44;;;;;;;9.27;4.63;;;;;;;;;;4913646;29;20977;-68
2022/04/18 03:50:11;;;;;;;8.20;5.53;;;;;;;;;;4897732;29;20992;-68
2022/04/18 03:52:42;;;;;;;7.57;5.00;;;;;;;;;;4897230;29;20458;-68
2022/04/18 03:55:23;;;;;;;9.23;5.13;;;;;;;;;;4902228;29;20481;-68
2022/04/18 03:57:49;;;;;;;6.17;4.63;;;;;;;;;;4883565;29;20785;-68
2022/04/18 04:00:17;;;;;;;6.93;4.83;;;;;;;;;;4887895;29;20892;-67
2022/04/18 04:02:48;;;;;;;8.37;5.37;;;;;;;;;;4887172;29;20476;-68
2022/04/18 04:05:24;;;;;;;7.83;5.27;;;;;;;;;;4896349;29;20507;-68
2022/04/18 04:07:54;;;;;;;8.80;5.07;;;;;;;;;;4891938;29;20466;-68
2022/04/18 04:10:26;;;;;;;10.17;5.10;;;;;;;;;;4879128;29;20560;-69
2022/04/18 04:12:53;;;;;;;8.50;4.63;;;;;;;;;;4902264;29;20482;-68
2022/04/18 04:15:39;;;;;;;8.27;5.10;;;;;;;;;;4910424;29;20538;-69
2022/04/18 04:18:13;;;;;;;9.37;5.00;;;;;;;;;;4894668;29;20978;-68
2022/04/18 04:20:41;;;;;;;8.93;5.00;;;;;;;;;;4893138;29;20462;-70
2022/04/18 04:26:38;;;;;;;6.17;4.20;;;;;;;;;;4884494;29;20557;-73
2022/04/18 04:29:08;;;;;;;6.30;4.23;;;;;;;;;;4867881;29;20466;-72
2022/04/18 04:31:55;;;;;;;7.70;4.87;;;;;;;;;;4894944;29;20451;-74
2022/04/18 04:34:24;;;;;;;10.27;5.07;;;;;;;;;;4894635;29;20478;-72
2022/04/18 04:37:09;;;;;;;8.47;4.93;;;;;;;;;;4894267;29;20447;-72
2022/04/18 04:39:37;;;;;;;7.57;5.00;;;;;;;;;;4894145;29;20453;-72
2022/04/18 04:42:04;;;;;;;8.70;5.17;;;;;;;;;;4893625;29;21171;-73
2022/04/18 04:44:32;;;;;;;7.93;5.03;;;;;;;;;;4893839;29;20469;-72
2022/04/18 04:47:04;;;;;;;8.70;5.43;;;;;;;;;;4877539;29;20463;-73
2022/04/18 04:49:32;;;;;;;8.30;4.73;;;;;;;;;;4878600;29;20818;-72
2022/04/18 04:52:16;;;;;;;9.83;6.27;;;;;;;;;;4893131;29;20462;-72
2022/04/18 04:54:45;;;;;;;7.33;5.30;;;;;;;;;;4895034;29;20947;-72
2022/04/18 04:57:18;;;;;;;8.80;5.27;;;;;;;;;;4892042;29;20439;-72
2022/04/18 05:00:14;;;;;;;7.00;5.17;;;;;;;;;;4854312;29;20454;-72
2022/04/18 05:03:02;;;;;;;8.30;5.30;;;;;;;;;;4892520;29;20523;-71
2022/04/18 05:05:29;;;;;;;7.67;4.70;;;;;;;;;;4877408;29;20555;-71
2022/04/18 05:07:57;;;;;;;7.27;4.63;;;;;;;;;;4879397;29;20856;-72
2022/04/18 05:10:28;;;;;;;4.90;3.97;;;;;;;;;;4894392;29;20270;-71
2022/04/18 05:12:56;;;;;;;6.00;4.00;;;;;;;;;;4893955;29;20306;-72
2022/04/18 05:15:24;;;;;;;6.67;4.23;;;;;;;;;;4878584;29;20234;-71
2022/04/18 05:18:27;;;;;;;5.17;3.43;;;;;;;;;;4852707;29;20216;-71
2022/04/18 05:20:55;;;;;;;8.30;4.90;;;;;;;;;;4875739;29;20741;-72
2022/04/18 05:23:22;;;;;;;13.43;7.10;;;;;;;;;;4894214;29;20231;-71
2022/04/18 05:25:52;;;;;;;12.00;6.30;;;;;;;;;;4911297;29;20192;-71
2022/04/18 05:28:19;;;;;;;7.13;5.27;;;;;;;;;;4892810;29;20202;-71
2022/04/18 05:30:51;;;;;;;6.03;3.90;;;;;;;;;;4877857;29;20246;-71
2022/04/18 05:33:21;;;;;;;5.87;3.73;;;;;;;;;;4893372;29;20703;-71
2022/04/18 05:36:08;;;;;;;7.70;3.63;;;;;;;;;;4905042;29;20608;-71
2022/04/18 05:38:36;;;;;;;5.37;3.37;;;;;;;;;;4863906;29;20307;-71
2022/04/18 05:41:36;;;;;;;5.37;2.97;;;;;;;;;;4878471;29;20187;-72
2022/04/18 05:44:17;;;;;;;7.47;4.10;;;;;;;;;;4894890;29;20223;-70
2022/04/18 05:46:51;;;;;;;8.30;4.33;;;;;;;;;;4891473;29;20710;-71
2022/04/18 05:49:18;;;;;;;9.30;4.73;;;;;;;;;;4893242;29;20263;-70
2022/04/18 05:52:03;;;;;;;7.77;4.33;;;;;;;;;;4907807;29;20282;-71
2022/04/18 05:54:31;;;;;;;8.83;5.10;;;;;;;;;;4893636;29;20198;-70
2022/04/18 05:57:03;;;;;;;6.43;3.40;;;;;;;;;;4893385;29;20562;-71
2022/04/18 05:59:36;;;;;;;7.30;3.37;;;;;;;;;;4879393;29;20251;-70
2022/04/18 06:02:15;;;;;;;4.77;3.00;;;;;;;;;;4892782;29;20558;-70
2022/04/18 06:04:57;;;;;;;5.83;3.00;;;;;;;;;;4890280;29;20203;-70
2022/04/18 06:07:45;;;;;;;6.03;2.90;;;;;;;;;;4895258;29;20199;-70
2022/04/18 06:10:31;;;;;;;5.23;2.87;;;;;;;;;;4909995;29;20717;-70
2022/04/18 06:13:18;;;;;;;5.00;3.10;;;;;;;;;;4890544;29;20565;-70
2022/04/18 06:15:47;;;;;;;5.43;3.00;;;;;;;;;;4892187;29;20295;-70
2022/04/18 06:18:14;;;;;;;6.27;2.80;;;;;;;;;;4869175;29;20204;-69
2022/04/18 06:20:43;;;;;;;4.53;2.70;;;;;;;;;;4888103;29;20287;-69
2022/04/18 06:23:10;;;;;;;4.53;2.60;;;;;;;;;;4876776;29;20215;-69
2022/04/18 06:26:14;;;;;;;4.53;2.87;;;;;;;;;;4892833;29;20187;-70
2022/04/18 06:28:42;;;;;;;3.17;2.57;;;;;;;;;;4876241;29;20198;-69
2022/04/18 06:31:10;;;;;;;6.53;3.10;;;;;;;;;;4885797;29;20223;-70
2022/04/18 06:34:06;;;;;;;5.87;3.27;;;;;;;;;;4897616;29;20769;-70
2022/04/18 06:36:36;;;;;;;4.67;2.93;;;;;;;;;;4891204;29;20209;-71
2022/04/18 06:39:21;;;;;;;4.17;3.20;;;;;;;;;;4878869;29;20677;-70
2022/04/18 06:42:02;;;;;;;4.43;2.57;;;;;;;;;;4887122;29;20202;-70
2022/04/18 06:44:39;;;;;;;5.27;2.70;;;;;;;;;;4876874;29;20225;-71
2022/04/18 06:47:23;;;;;;;4.40;2.73;;;;;;;;;;4886308;29;20180;-71
2022/04/18 06:50:00;;;;;;;9.57;7.00;;;;;;;;;;4893057;29;20191;-71
2022/04/18 06:52:42;;;;;;;5.13;3.07;;;;;;;;;;4899435;29;20228;-71
2022/04/18 06:56:58;;;;;;;3.83;3.03;;;;;;;;;;4911795;29;20237;-71
2022/04/18 06:58:15;;;;;;;4.77;3.10;;;;;;;;;;4895063;29;20203;-71
2022/04/18 07:00:42;;;;;;;5.17;3.17;;;;;;;;;;4894655;29;20659;-70
2022/04/18 07:03:12;;;;;;;5.47;2.97;;;;;;;;;;4911763;29;20212;-71
2022/04/18 07:05:41;;;;;;;4.57;3.27;;;;;;;;;;4896521;29;20222;-70
2022/04/18 07:08:08;;;;;;;4.13;3.17;;;;;;;;;;4895815;29;20271;-69
2022/04/18 07:10:35;;;;;;;5.03;3.30;;;;;;;;;;4880886;29;20605;-70
2022/04/18 07:13:09;;;;;;;5.87;3.33;;;;;;;;;;4903265;29;20214;-70
2022/04/18 07:15:37;;;;;;;3.90;3.10;;;;;;;;;;4895121;29;20210;-70
2022/04/18 07:18:06;;;;;;;6.37;3.20;;;;;;;;;;4887086;29;20208;-70
2022/04/18 07:20:33;;;;;;;5.87;3.40;;;;;;;;;;4876609;29;20204;-70
2022/04/18 07:23:00;;;;;;;5.37;3.40;;;;;;;;;;4884856;29;20223;-70
2022/04/18 07:25:38;;;;;;;4.83;3.40;;;;;;;;;;4898583;29;20255;-70
2022/04/18 07:28:27;;;;;;;4.80;3.27;;;;;;;;;;4903314;29;20219;-70
2022/04/18 07:30:55;;;;;;;5.33;3.20;;;;;;;;;;4893689;29;20218;-70
2022/04/18 07:33:22;;;;;;;4.80;3.50;;;;;;;;;;4897018;29;20266;-69
2022/04/18 07:35:50;;;;;;;4.47;3.30;;;;;;;;;;4898026;29;20203;-69
2022/04/18 07:38:51;;;;;;;4.23;3.30;;;;;;;;;;4898747;29;20183;-69
2022/04/18 07:41:30;;;;;;;4.37;3.30;;;;;;;;;;4883598;29;20287;-69
2022/04/18 07:44:01;;;;;;;3.83;3.40;;;;;;;;;;4879300;29;20237;-69
2022/04/18 07:46:30;;;;;;;5.03;3.17;;;;;;;;;;4879508;29;20288;-70
2022/04/18 07:48:59;;;;;;;5.27;3.10;;;;;;;;;;4878746;29;20295;-69
2022/04/18 07:51:32;;;;;;;4.27;3.10;;;;;;;;;;4879394;29;20208;-69
2022/04/18 07:54:38;;;;;;;4.00;3.03;;;;;;;;;;4880022;29;20536;-70
2022/04/18 07:57:06;;;;;;;4.23;3.20;;;;;;;;;;4894936;29;20270;-69
2022/04/18 07:59:59;;;;;;;6.33;3.70;;;;;;;;;;4898664;29;20208;-69
2022/04/18 08:02:26;;;;;;;4.27;3.47;;;;;;;;;;4899692;29;20192;-69
2022/04/18 08:05:09;;;;;;;6.17;3.80;;;;;;;;;;4886673;29;20562;-69
2022/04/18 08:07:58;;;;;;;6.03;3.40;;;;;;;;;;4906893;29;20210;-69
2022/04/18 08:10:43;;;;;;;6.10;3.70;;;;;;;;;;4897625;29;20547;-69
2022/04/18 08:13:11;;;;;;;5.47;3.67;;;;;;;;;;4906248;29;20200;-69
2022/04/18 08:15:58;;;;;;;5.40;3.40;;;;;;;;;;4901291;29;20210;-69
2022/04/18 08:18:42;;;;;;;7.03;4.17;;;;;;;;;;4887993;29;20204;-70
2022/04/18 08:21:15;;;;;;;5.90;4.00;;;;;;;;;;4879547;29;20652;-69
2022/04/18 08:23:43;;;;;;;6.13;4.57;;;;;;;;;;4877367;29;20228;-69
2022/04/18 08:26:33;;;;;;;4.87;3.70;;;;;;;;;;4861894;29;20204;-69
2022/04/18 08:29:15;;;;;;;6.97;4.40;;;;;;;;;;4889193;29;20206;-70
2022/04/18 08:32:02;;;;;;;5.50;3.73;;;;;;;;;;4903761;29;20231;-71
2022/04/18 08:34:30;;;;;;;7.00;4.37;;;;;;;;;;4873665;29;20255;-71
2022/04/18 08:36:57;;;;;;;4.40;3.40;;;;;;;;;;4884989;29;20208;-72
2022/04/18 08:39:39;;;;;;;5.03;3.77;;;;;;;;;;4882610;29;20227;-72
2022/04/18 08:42:09;;;;;;;6.07;3.90;;;;;;;;;;4863368;29;20252;-72
2022/04/18 08:44:42;;;;;;;5.57;3.80;;;;;;;;;;4877555;29;20224;-68
2022/04/18 08:53:23;;;;;;;4.87;3.20;;;;;;;;;;4879125;29;20212;-74
2022/04/18 08:55:50;;;;;;;6.13;3.73;;;;;;;;;;4883225;29;20185;-66
2022/04/18 08:58:28;;;;;;;5.17;3.60;;;;;;;;;;4887887;29;20209;-69
2022/04/18 09:00:56;;;;;;;5.23;4.03;;;;;;;;;;4883937;29;20219;-66
2022/04/18 09:03:50;;;;;;;6.00;3.63;;;;;;;;;;4892585;29;20218;-72
2022/04/18 09:06:23;;;;;;;5.07;3.90;;;;;;;;;;4875442;29;20256;-71
2022/04/18 09:09:15;;;;;;;4.67;3.43;;;;;;;;;;4896587;29;20215;-68
2022/04/18 09:11:45;;;;;;;5.10;3.57;;;;;;;;;;4888830;29;20207;-70
2022/04/18 09:14:18;;;;;;;3.70;2.97;;;;;;;;;;4877435;29;20202;-65
2022/04/18 09:16:49;;;;;;;5.60;2.90;;;;;;;;;;4876832;29;20244;-65
2022/04/18 09:19:36;;;;;;;5.30;3.30;;;;;;;;;;4881967;29;20200;-67
2022/04/18 09:22:05;;;;;;;4.47;3.30;;;;;;;;;;4890662;29;20740;-66
2022/04/18 09:24:37;;;;;;;4.77;3.03;;;;;;;;;;4899952;29;20220;-70
2022/04/18 09:27:14;;;;;;;4.63;3.10;;;;;;;;;;4896973;29;20193;-68
2022/04/18 09:29:44;;;;;;;3.43;2.40;;;;;;;;;;4886293;29;20296;-70
2022/04/18 09:32:21;;;;;;;6.80;3.70;;;;;;;;;;4873639;29;20208;-69
2022/04/18 09:35:08;;;;;;;4.23;3.07;;;;;;;;;;4885854;29;20295;-70
2022/04/18 09:37:44;;;;;;;4.10;3.50;;;;;;;;;;4886129;29;20215;-68
2022/04/18 09:40:55;;;;;;;3.90;3.30;;;;;;;;;;4864491;29;20215;-68
2022/04/18 09:43:39;;;;;;;4.80;3.20;;;;;;;;;;4895299;29;20223;-68
2022/04/18 09:46:20;;;;;;;4.83;3.53;;;;;;;;;;4883708;29;20212;-73
2022/04/18 09:49:01;;;;;;;5.90;4.00;;;;;;;;;;4883761;29;20311;-72
2022/04/18 09:51:37;;;;;;;6.17;3.47;;;;;;;;;;4884376;29;20209;-72
2022/04/18 09:54:15;;;;;;;4.87;3.57;;;;;;;;;;4857868;29;20208;-72
2022/04/18 09:56:49;;;;;;;4.23;2.57;;;;;;;;;;4888419;29;20263;-72
2022/04/18 09:59:16;;;;;;;4.57;3.00;;;;;;;;;;4888670;29;20283;-71
2022/04/18 10:01:43;;;;;;;4.00;3.10;;;;;;;;;;4882809;29;20738;-72
2022/04/18 10:04:10;;;;;;;5.47;3.60;;;;;;;;;;4894168;29;20635;-72
2022/04/18 10:06:41;;;;;;;4.87;3.70;;;;;;;;;;4892086;29;20208;-71
2022/04/18 10:09:08;;;;;;;5.40;3.70;;;;;;;;;;4889781;29;20183;-69
2022/04/18 10:11:35;;;;;;;4.77;3.70;;;;;;;;;;4894239;29;20192;-70
2022/04/18 10:14:03;;;;;;;5.37;3.70;;;;;;;;;;4889657;29;20287;-70
2022/04/18 10:16:30;;;;;;;4.93;3.53;;;;;;;;;;4892527;29;20547;-70
2022/04/18 10:18:57;;;;;;;4.43;3.80;;;;;;;;;;4881151;29;20290;-69
2022/04/18 10:21:30;;;;;;;5.27;3.83;;;;;;;;;;4881299;29;20224;-69
2022/04/18 10:24:00;;;;;;;3.17;2.67;;;;;;;;;;4895377;29;20223;-70
2022/04/18 10:26:43;;;;;;;6.43;3.43;;;;;;;;;;4894595;29;20207;-70
2022/04/18 10:29:13;;;;;;;3.63;2.00;;;;;;;;;;4877731;29;20205;-70
2022/04/18 10:31:47;;;;;;;4.73;3.13;;;;;;;;;;4871135;29;20195;-69
2022/04/18 10:34:14;;;;;;;3.87;2.70;;;;;;;;;;4869270;29;20224;-70
2022/04/18 10:36:46;;;;;;;3.90;2.67;;;;;;;;;;4856766;29;21044;-70
2022/04/18 10:39:13;;;;;;;5.73;3.70;;;;;;;;;;4889360;29;20886;-69
2022/04/18 10:41:40;;;;;;;3.53;2.50;;;;;;;;;;4888882;29;20213;-69
2022/04/18 10:44:31;;;;;;;3.27;2.67;;;;;;;;;;4889008;29;20227;-72
2022/04/18 10:46:58;;;;;;;5.00;3.27;;;;;;;;;;4886746;29;20200;-71
2022/04/18 10:49:27;;;;;;;4.70;3.27;;;;;;;;;;4887739;29;20200;-71
2022/04/18 10:51:54;;;;;;;5.33;3.40;;;;;;;;;;4888477;29;20278;-71
2022/04/18 10:54:21;;;;;;;5.43;3.80;;;;;;;;;;4893710;29;21217;-71
2022/04/18 10:56:54;;;;;;;4.67;3.50;;;;;;;;;;4890200;29;20287;-70
2022/04/18 10:59:24;;;;;;;5.80;3.30;;;;;;;;;;4898025;29;20196;-70
2022/04/18 11:01:51;;;;;;;6.43;3.60;;;;;;;;;;4892084;29;20198;-70
2022/04/18 11:04:22;;;;;;;4.73;3.43;;;;;;;;;;4875289;29;20243;-70
2022/04/18 11:07:04;;;;;;;4.43;3.53;;;;;;;;;;4897288;29;20204;-70
2022/04/18 11:09:36;;;;;;;4.80;3.43;;;;;;;;;;4897063;29;20203;-71
2022/04/18 11:12:12;;;;;;;6.33;3.67;;;;;;;;;;4887734;29;20695;-70
2022/04/18 11:15:03;;;;;;;5.10;2.90;;;;;;;;;;4895750;29;20537;-70
2022/04/18 11:17:31;;;;;;;4.17;3.77;;;;;;;;;;4894302;29;20196;-68
2022/04/18 11:20:18;;;;;;;4.10;3.33;;;;;;;;;;4894033;29;20203;-69
2022/04/18 11:23:05;;;;;;;4.03;2.80;;;;;;;;;;4890808;29;20777;-69
2022/04/18 11:25:51;;;;;;;5.53;3.30;;;;;;;;;;4903743;29;20225;-69
2022/04/18 11:28:17;;;;;;;4.37;3.40;;;;;;;;;;4892472;29;20282;-69
2022/04/18 11:30:45;;;;;;;3.17;2.40;;;;;;;;;;4890677;29;20199;-68
2022/04/18 11:33:12;;;;;;;2.80;2.23;;;;;;;;;;4886186;29;20232;-68
2022/04/18 11:35:39;;;;;;;3.83;2.53;;;;;;;;;;4891973;29;20989;-69
2022/04/18 11:38:09;;;;;;;5.47;3.17;;;;;;;;;;4899829;29;20204;-68
2022/04/18 11:40:37;;;;;;;5.63;4.00;;;;;;;;;;4891152;29;20220;-68
2022/04/18 11:43:14;;;;;;;5.60;3.77;;;;;;;;;;4893625;29;20196;-69
2022/04/18 11:46:03;;;;;;;4.47;3.10;;;;;;;;;;4894065;29;20211;-69
2022/04/18 11:48:30;;;;;;;4.67;3.20;;;;;;;;;;4887918;29;20228;-69
2022/04/18 11:51:16;;;;;;;7.17;3.70;;;;;;;;;;4899812;29;20187;-69
2022/04/18 11:53:43;;;;;;;5.53;3.53;;;;;;;;;;4889764;29;20205;-69
2022/04/18 11:56:11;;;;;;;5.00;3.83;;;;;;;;;;4887044;29;20199;-69
2022/04/18 11:58:41;;;;;;;6.53;2.73;;;;;;;;;;4884593;29;20669;-70
2022/04/18 12:06:46;;;;;;;8.47;3.97;;;;;;;;;;4906736;29;20588;-69
2022/04/18 12:09:14;;;;;;;6.13;4.20;;;;;;;;;;4912247;29;20282;-69
2022/04/18 12:11:41;;;;;;;6.37;4.23;;;;;;;;;;4897466;29;20284;-69
2022/04/18 12:14:08;;;;;;;5.37;4.03;;;;;;;;;;4894926;29;20200;-69
2022/04/18 12:16:53;;;;;;;6.77;4.20;;;;;;;;;;4888867;29;20180;-70
2022/04/18 12:19:21;;;;;;;6.63;3.93;;;;;;;;;;4884651;29;20201;-69
2022/04/18 12:21:52;;;;;;;5.80;3.70;;;;;;;;;;4868088;29;20261;-69
2022/04/18 12:24:19;;;;;;;6.23;4.30;;;;;;;;;;4898172;29;20248;-69
2022/04/18 12:26:51;;;;;;;8.03;4.57;;;;;;;;;;4893006;29;20192;-68
2022/04/18 12:29:19;;;;;;;4.73;3.50;;;;;;;;;;4893562;29;20623;-68
2022/04/18 12:31:45;;;;;;;6.37;3.80;;;;;;;;;;4895630;29;20295;-68
2022/04/18 12:34:18;;;;;;;6.87;3.90;;;;;;;;;;4903349;29;20754;-69
2022/04/18 12:36:55;;;;;;;6.00;3.43;;;;;;;;;;4915108;29;20679;-68
2022/04/18 12:39:22;;;;;;;6.37;3.90;;;;;;;;;;4913287;29;20192;-68
2022/04/18 12:41:49;;;;;;;6.97;4.50;;;;;;;;;;4899370;29;20195;-68
2022/04/18 12:44:16;;;;;;;7.60;4.90;;;;;;;;;;4908716;29;20302;-68
2022/04/18 12:46:43;;;;;;;7.23;3.53;;;;;;;;;;4897607;29;20204;-68
2022/04/18 12:49:10;;;;;;;4.53;3.90;;;;;;;;;;4909503;29;20214;-68
2022/04/18 12:51:39;;;;;;;5.80;4.40;;;;;;;;;;4902080;29;20194;-68
2022/04/18 12:54:22;;;;;;;4.73;3.80;;;;;;;;;;4905617;29;20201;-69
2022/04/18 12:56:49;;;;;;;6.47;4.03;;;;;;;;;;4911391;29;20666;-69
2022/04/18 12:59:23;;;;;;;5.03;3.27;;;;;;;;;;4909215;29;20230;-71
2022/04/18 13:01:50;;;;;;;7.20;3.60;;;;;;;;;;4909946;29;20733;-69
2022/04/18 13:04:23;;;;;;;6.17;3.77;;;;;;;;;;4899381;29;20225;-69
2022/04/18 13:06:54;;;;;;;5.13;3.70;;;;;;;;;;4914543;29;20286;-69
2022/04/18 13:09:21;;;;;;;6.20;3.60;;;;;;;;;;4907558;29;20202;-69
2022/04/18 13:11:49;;;;;;;6.20;4.43;;;;;;;;;;4910095;29;20199;-69
2022/04/18 13:14:16;;;;;;;6.17;4.07;;;;;;;;;;4896806;29;20220;-69
2022/04/18 13:16:43;;;;;;;20.03;4.60;;;;;;;;;;4892080;29;20187;-69
2022/04/18 13:19:10;;;;;;;5.57;3.60;;;;;;;;;;4911436;29;20207;-69
2022/04/18 13:21:38;;;;;;;8.00;3.90;;;;;;;;;;4894561;29;20287;-70
2022/04/18 13:24:05;;;;;;;4.60;2.73;;;;;;;;;;4869894;29;20232;-70
2022/04/18 13:26:32;;;;;;;5.43;3.50;;;;;;;;;;4902329;29;20193;-68
2022/04/18 13:28:59;;;;;;;3.80;2.80;;;;;;;;;;4906044;29;20207;-67
2022/04/18 13:31:26;;;;;;;3.90;2.70;;;;;;;;;;4897056;29;20837;-68
2022/04/18 13:33:53;;;;;;;5.73;3.93;;;;;;;;;;4873102;29;20224;-68
2022/04/18 13:36:33;;;;;;;5.80;4.20;;;;;;;;;;4902807;29;20279;-69
2022/04/18 13:39:01;;;;;;;4.97;3.90;;;;;;;;;;4891246;29;20200;-69
2022/04/18 13:41:29;;;;;;;6.47;4.40;;;;;;;;;;4878673;29;20192;-68
2022/04/18 13:43:56;;;;;;;5.80;4.40;;;;;;;;;;4897229;29;20188;-68
2022/04/18 13:46:25;;;;;;;6.00;4.23;;;;;;;;;;4893001;29;20335;-68
2022/04/18 13:48:52;;;;;;;5.83;3.70;;;;;;;;;;4876759;29;20826;-68
2022/04/18 13:51:20;;;;;;;5.70;3.30;;;;;;;;;;4905412;29;20295;-68
2022/04/18 13:53:47;;;;;;;5.33;3.70;;;;;;;;;;4877162;29;20203;-68
2022/04/18 13:56:13;;;;;;;6.07;4.43;;;;;;;;;;4904680;29;20231;-72
2022/04/18 13:58:40;;;;;;;6.67;4.00;;;;;;;;;;4897800;29;20215;-74
2022/04/18 14:01:07;;;;;;;6.43;3.73;;;;;;;;;;4882232;29;20545;-69
2022/04/18 14:03:37;;;;;;;5.87;3.90;;;;;;;;;;4907645;29;20250;-69
2022/04/18 14:06:07;;;;;;;4.80;3.43;;;;;;;;;;4896398;29;20218;-69
2022/04/18 14:08:34;;;;;;;6.27;3.97;;;;;;;;;;4894308;29;20595;-69
2022/04/18 14:11:01;;;;;;;6.03;3.87;;;;;;;;;;4898794;29;20900;-69
2022/04/18 14:13:28;;;;;;;5.73;4.10;;;;;;;;;;4892322;29;20192;-70
2022/04/18 14:21:26;;;;;;;6.77;3.97;;;;;;;;;;4896010;29;20184;-69
2022/04/18 14:23:53;;;;;;;6.50;4.30;;;;;;;;;;4869056;29;20839;-70
2022/04/18 14:26:20;;;;;;;6.20;4.07;;;;;;;;;;4887584;29;21069;-75
2022/04/18 14:28:49;;;;;;;6.93;4.30;;;;;;;;;;4911114;29;20195;-69
2022/04/18 14:31:15;;;;;;;6.70;4.30;;;;;;;;;;4915445;29;20286;-69
2022/04/18 14:33:42;;;;;;;8.63;4.83;;;;;;;;;;4911660;29;20352;-69
2022/04/18 14:36:11;;;;;;;8.17;4.33;;;;;;;;;;4916407;29;20227;-68
2022/04/18 14:38:38;;;;;;;8.27;4.80;;;;;;;;;;4915118;29;20194;-68
2022/04/18 14:41:05;;;;;;;8.10;5.50;;;;;;;;;;4909098;29;20310;-69
2022/04/18 14:43:32;;;;;;;6.87;4.30;;;;;;;;;;4908109;29;20280;-70
2022/04/18 14:45:59;;;;;;;5.93;4.23;;;;;;;;;;4905668;29;20239;-70
2022/04/18 14:48:26;;;;;;;8.57;4.83;;;;;;;;;;4908793;29;20231;-70
2022/04/18 14:50:53;;;;;;;8.57;4.93;;;;;;;;;;4908510;29;20203;-70
2022/04/18 14:53:19;;;;;;;6.63;4.60;;;;;;;;;;4907732;29;20246;-70
2022/04/18 14:55:47;;;;;;;8.20;4.67;;;;;;;;;;4904476;29;20606;-70
2022/04/18 14:58:16;;;;;;;8.17;4.37;;;;;;;;;;4891243;29;20199;-70
2022/04/18 15:00:43;;;;;;;7.50;4.83;;;;;;;;;;4888262;29;20764;-69
2022/04/18 15:03:10;;;;;;;8.43;4.83;;;;;;;;;;4887366;29;20203;-68
2022/04/18 15:05:37;;;;;;;7.73;4.70;;;;;;;;;;4901847;29;20219;-69
2022/04/18 15:08:04;;;;;;;7.87;4.80;;;;;;;;;;4890064;29;20180;-68
2022/04/18 15:10:31;;;;;;;9.10;5.33;;;;;;;;;;4880262;29;20234;-69
2022/04/18 15:12:58;;;;;;;7.83;4.70;;;;;;;;;;4907996;29;20199;-69
2022/04/18 15:15:25;;;;;;;9.87;5.33;;;;;;;;;;4908259;29;20317;-69
2022/04/18 15:17:52;;;;;;;9.63;4.97;;;;;;;;;;4908983;29;20220;-68
2022/04/18 15:20:19;;;;;;;9.70;5.07;;;;;;;;;;4878665;29;20328;-68
2022/04/18 15:22:46;;;;;;;11.63;4.97;;;;;;;;;;4878433;29;20211;-69
2022/04/18 15:25:13;;;;;;;8.67;5.00;;;;;;;;;;4896150;29;20239;-69
2022/04/18 15:27:39;;;;;;;9.17;4.80;;;;;;;;;;4893998;29;21010;-69
2022/04/18 15:33:10;;;;;;;9.90;5.20;;;;;;;;;;4904356;29;20288;-68
2022/04/18 15:35:37;;;;;;;11.37;5.30;;;;;;;;;;4913454;29;20203;-69
2022/04/18 15:38:04;;;;;;;9.73;5.67;;;;;;;;;;4890963;29;20210;-68
2022/04/18 15:40:33;;;;;;;12.37;6.00;;;;;;;;;;4908726;29;20195;-68